| time (UTC) | temp C | wind direction | speed KPH | gust KPH | rain 1hr cm | rain 24hr cm | rain mn cm | humidity % | barometer mb |
| 20260505153054 | 2 | 15 | 1.6 | 9.7 | 0.00 | 0.03 | 0.00 | 94 | 1010.3 |
| 20260505151555 | 2 | 15 | 3.2 | 9.7 | 0.00 | 0.03 | 0.00 | 94 | 1010.3 |
| 20260505130141 | 2 | 349 | 6.4 | 14.5 | 0.00 | 0.03 | 0.00 | 93 | 1009.3 |
| 20260505124504 | 2 | 5 | 6.4 | 17.7 | 0.00 | 0.03 | 0.00 | 92 | 1008.8 |
| 20260505123108 | 2 | 323 | 4.8 | 17.7 | 0.00 | 0.03 | 0.00 | 92 | 1008.5 |
| 20260505121623 | 2 | 355 | 4.8 | 22.5 | 0.00 | 0.03 | 0.00 | 92 | 1008.3 |
| 20260505120013 | 3 | 13 | 6.4 | 19.3 | 0.00 | 0.03 | 0.00 | 92 | 1008.0 |
| 20260505114509 | 3 | 355 | 8.0 | 22.5 | 0.00 | 0.03 | 0.00 | 92 | 1007.8 |
| 20260505113007 | 3 | 355 | 8.0 | 19.3 | 0.00 | 0.03 | 0.00 | 92 | 1007.6 |
| 20260505111507 | 3 | 360 | 9.7 | 19.3 | 0.00 | 0.03 | 0.00 | 92 | 1007.3 |
| 20260505110118 | 4 | 5 | 9.7 | 17.7 | 0.00 | 0.03 | 0.00 | 92 | 1007.0 |
| 20260505101547 | 5 | 334 | 6.4 | 20.9 | 0.00 | 0.03 | 0.00 | 92 | 1005.9 |
| 20260505100044 | 6 | 342 | 4.8 | 12.9 | 0.00 | 0.03 | 0.00 | 92 | 1005.2 |
| 20260505094541 | 6 | 312 | 1.6 | 9.7 | 0.00 | 0.03 | 0.00 | 92 | 1005.4 |
| 20260505093039 | 6 | 311 | 1.6 | 11.3 | 0.00 | 0.03 | 0.00 | 91 | 1005.2 |
| 20260505091537 | 7 | 316 | 1.6 | 14.5 | 0.00 | 0.03 | 0.00 | 91 | 1005.1 |
| 20260505090037 | 8 | 355 | 8.0 | 16.1 | 0.00 | 0.03 | 0.00 | 90 | 1004.6 |
| 20260505084530 | 8 | 281 | 3.2 | 9.7 | 0.00 | 0.03 | 0.00 | 92 | 1004.9 |
| 20260505083027 | 8 | 277 | 0.0 | 4.8 | 0.00 | 0.03 | 0.00 | 92 | 1004.9 |
| 20260505081540 | 8 | 276 | 0.0 | 0.0 | 0.00 | 0.03 | 0.00 | 92 | 1005.0 |
| 20260505080027 | 8 | 276 | 0.0 | 0.0 | 0.00 | 0.03 | 0.00 | 92 | 1004.9 |
| 20260505074526 | 8 | 276 | 0.0 | 0.0 | 0.00 | 0.03 | 0.00 | 92 | 1004.9 |
| 20260505073032 | 8 | 276 | 0.0 | 0.0 | 0.00 | 0.03 | 0.00 | 92 | 1005.2 |
| 20260505071543 | 8 | 276 | 0.0 | 0.0 | 0.00 | 0.03 | 0.00 | 92 | 1005.3 |
| 20260505070022 | 8 | 276 | 0.0 | 0.0 | 0.00 | 0.03 | 0.00 | 92 | 1005.3 |
| 20260505064525 | 8 | 276 | 0.0 | 0.0 | 0.00 | 0.03 | 0.00 | 92 | 1005.2 |
| 20260505063020 | 8 | 276 | 0.0 | 0.0 | 0.00 | 0.03 | 0.00 | 92 | 1005.3 |
| 20260505061519 | 8 | 276 | 0.0 | 0.0 | 0.00 | 0.03 | 0.00 | 92 | 1005.3 |
| 20260505060017 | 8 | 276 | 0.0 | 0.0 | 0.00 | 0.03 | 0.03 | 92 | 1005.4 |
| 20260505054516 | 8 | 276 | 0.0 | 0.0 | 0.00 | 0.03 | 0.03 | 91 | 1005.4 |
| 20260505053023 | 8 | 276 | 0.0 | 0.0 | 0.00 | 0.03 | 0.03 | 91 | 1004.9 |
| 20260505051527 | 8 | 276 | 0.0 | 0.0 | 0.00 | 0.03 | 0.03 | 91 | 1005.1 |
| 20260505041516 | 8 | 276 | 0.0 | 3.2 | 0.03 | 0.03 | 0.03 | 88 | 1005.3 |
| 20260505040017 | 8 | 276 | 0.0 | 1.6 | 0.03 | 0.03 | 0.03 | 87 | 1005.3 |
| 20260505034511 | 9 | 276 | 0.0 | 6.4 | 0.03 | 0.03 | 0.03 | 84 | 1005.3 |
| 20260505033010 | 10 | 271 | 0.0 | 16.1 | 0.03 | 0.03 | 0.03 | 76 | 1005.2 |
| 20260505031505 | 11 | 5 | 0.0 | 8.0 | 0.00 | 0.00 | 0.00 | 66 | 1004.5 |
| 20260505030005 | 11 | 24 | 1.6 | 14.5 | 0.00 | 0.00 | 0.00 | 64 | 1004.1 |
| 20260505024602 | 11 | 24 | 3.2 | 6.4 | 0.00 | 0.00 | 0.00 | 63 | 1003.7 |
| 20260505023108 | 12 | 13 | 3.2 | 14.5 | 0.00 | 0.00 | 0.00 | 62 | 1003.6 |
| 20260505021601 | 13 | 17 | 12.9 | 22.5 | 0.00 | 0.00 | 0.00 | 56 | 1003.2 |
| 20260505014558 | 12 | 259 | 0.0 | 0.0 | 0.00 | 0.00 | 0.00 | 58 | 1002.9 |
| 20260505013057 | 12 | 259 | 0.0 | 0.0 | 0.00 | 0.00 | 0.00 | 57 | 1002.7 |
| 20260505011557 | 12 | 259 | 0.0 | 0.0 | 0.00 | 0.00 | 0.00 | 59 | 1002.8 |
| 20260505004554 | 15 | 263 | 4.8 | 12.9 | 0.00 | 0.00 | 0.00 | 45 | 1003.0 |
| 20260505003056 | 16 | 47 | 1.6 | 9.7 | 0.00 | 0.00 | 0.00 | 39 | 1002.5 |
| 20260505001552 | 16 | 360 | 1.6 | 11.3 | 0.00 | 0.00 | 0.00 | 39 | 1002.3 |
| 20260505000100 | 16 | 349 | 8.0 | 17.7 | 0.00 | 0.00 | 0.00 | 35 | 1001.9 |
| 20260504234552 | 16 | 360 | 3.2 | 20.9 | 0.00 | 0.00 | 0.00 | 34 | 1001.6 |
| 20260504233053 | 17 | 323 | 3.2 | 16.1 | 0.00 | 0.00 | 0.00 | 34 | 1001.5 |
| 20260504231550 | 17 | 333 | 8.0 | 22.5 | 0.00 | 0.00 | 0.00 | 33 | 1001.3 |
| 20260504230050 | 17 | 32 | 9.7 | 25.7 | 0.00 | 0.00 | 0.00 | 32 | 1001.0 |
| 20260504224550 | 17 | 34 | 4.8 | 14.5 | 0.00 | 0.00 | 0.00 | 33 | 1001.1 |
| 20260504223049 | 17 | 322 | 9.7 | 17.7 | 0.00 | 0.00 | 0.00 | 32 | 1001.1 |
| 20260504221548 | 17 | 331 | 14.5 | 30.6 | 0.00 | 0.00 | 0.00 | 31 | 1000.9 |
| 20260504220108 | 17 | 27 | 12.9 | 29.0 | 0.00 | 0.00 | 0.00 | 31 | 1000.5 |
| 20260504214553 | 18 | 348 | 17.7 | 32.2 | 0.00 | 0.00 | 0.00 | 28 | 1000.1 |
| 20260504213052 | 19 | 72 | 8.0 | 17.7 | 0.00 | 0.00 | 0.00 | 24 | 1000.1 |
| 20260504211544 | 19 | 355 | 3.2 | 12.9 | 0.00 | 0.00 | 0.00 | 25 | 1000.2 |
| 20260504210043 | 18 | 46 | 4.8 | 16.1 | 0.00 | 0.00 | 0.00 | 25 | 1000.4 |
| 20260504204543 | 19 | 11 | 8.0 | 24.1 | 0.00 | 0.00 | 0.00 | 24 | 1000.6 |
| 20260504203043 | 19 | 347 | 6.4 | 17.7 | 0.00 | 0.00 | 0.00 | 24 | 1000.7 |
| 20260504201542 | 18 | 319 | 9.7 | 22.5 | 0.00 | 0.00 | 0.00 | 25 | 1000.4 |
| 20260504200048 | 18 | 258 | 6.4 | 17.7 | 0.00 | 0.00 | 0.00 | 27 | 1001.0 |
| 20260504194545 | 18 | 130 | 0.0 | 16.1 | 0.00 | 0.00 | 0.00 | 26 | 1001.2 |
| 20260504193039 | 18 | 251 | 8.0 | 24.1 | 0.00 | 0.00 | 0.00 | 28 | 1001.4 |
| 20260504191552 | 20 | 227 | 9.7 | 20.9 | 0.00 | 0.00 | 0.00 | 23 | 1000.7 |
| 20260504190044 | 21 | 319 | 0.0 | 6.4 | 0.00 | 0.00 | 0.00 | 21 | 1000.5 |
| 20260504184552 | 21 | 331 | 6.4 | 19.3 | 0.00 | 0.00 | 0.00 | 20 | 1000.4 |
| 20260504183047 | 22 | 298 | 4.8 | 17.7 | 0.00 | 0.00 | 0.00 | 20 | 1000.4 |
| 20260504181545 | 22 | 23 | 9.7 | 20.9 | 0.00 | 0.00 | 0.00 | 21 | 1000.4 |
| 20260504180035 | 22 | 314 | 9.7 | 16.1 | 0.00 | 0.00 | 0.00 | 21 | 1000.7 |
| 20260504174534 | 22 | 298 | 3.2 | 12.9 | 0.00 | 0.00 | 0.00 | 22 | 1000.8 |
| 20260504173031 | 22 | 279 | 1.6 | 12.9 | 0.00 | 0.00 | 0.00 | 21 | 1001.3 |
| 20260504171529 | 21 | 343 | 4.8 | 16.1 | 0.00 | 0.00 | 0.00 | 22 | 1001.3 |